Omaha — WDC9423 — position and weather

sailwx.info

Track history (hours):
 
Tides and Currents Weather Stations Pressure Air Temp Water Temp Dewpoint Dewpoint Depression Visibility Wind Speed Wind Dir Waves Ship Positions

Omaha

Owner: Turn services, Inc, New Orleans, LA. More information available from US FCC via Universal Licensing System and Coast Guard Vessel Documentation Center.

Last reported at 2015-Aug-01 23:27 UTC. Time now 2015-Aug-02 10:19 UTC.
Position N 29°55' W 089°56'.

Length 13 m; draft 3.5 m.

Type: Pilot. MMSI: 367102030.

Date/timePositionNaut miles runAvg speedWind from/ knotsBaromVisibWave heightAir tempDewpointWater temp
2015-Aug-01 23:27N 29°55' W 089°56'0 0.1
2015-Aug-01 19:33N 29°55' W 089°56'0 0.0
2015-Aug-01 08:31N 29°55' W 089°56'0 0.1
2015-Aug-01 06:12N 29°55' W 089°56'3 3.6
2015-Aug-01 05:30N 29°56' W 089°59'3 2.9
2015-Aug-01 04:33N 29°55' W 089°56'3 2.8
2015-Aug-01 03:20N 29°56' W 089°59'3 0.9
2015-Aug-01 00:09N 29°55' W 089°56'3 0.9
2015-Jul-31 21:20N 29°56' W 089°59'0 0.0
2015-Jul-31 01:20N 29°56' W 089°59'2 0.5
2015-Jul-30 21:13N 29°55' W 089°57'1 0.5
2015-Jul-30 20:08N 29°55' W 089°56'1 0.3
2015-Jul-30 16:28N 29°55' W 089°57'2 0.1
2015-Jul-29 13:08N 29°56' W 089°60'0 0.4
2015-Jul-29 12:31N 29°57' W 089°60'1 0.2
2015-Jul-29 08:33N 29°56' W 089°59'0 0.0
2015-Jul-29 07:16N 29°56' W 089°59'0 0.5
2015-Jul-29 06:33N 29°56' W 089°60'1 0.2
2015-Jul-29 01:23N 29°56' W 089°59'3 0.1
2015-Jul-27 08:29N 29°55' W 089°56'0 0.0
2015-Jul-26 19:31N 29°55' W 089°56'0 0.3
2015-Jul-26 18:33N 29°55' W 089°56'0 0.1
2015-Jul-26 17:26N 29°55' W 089°56'1 0.3
2015-Jul-26 15:26N 29°55' W 089°57'0 0.4
2015-Jul-26 14:17N 29°55' W 089°57'1 0.5
2015-Jul-26 12:32N 29°55' W 089°56'0 0.3
2015-Jul-26 11:03N 29°55' W 089°56'1 1.0
2015-Jul-26 10:14N 29°55' W 089°57'1 0.2
2015-Jul-26 06:29N 29°55' W 089°56'1 0.5
2015-Jul-26 05:29N 29°55' W 089°56'0 0.0
2015-Jul-26 03:28N 29°55' W 089°56'0 0.5
2015-Jul-26 02:29N 29°55' W 089°56'0 0.4
2015-Jul-26 01:28N 29°55' W 089°56'4 4.5
2015-Jul-26 00:33N 29°57' W 090°00'3 0.1
2015-Jul-24 09:30N 29°55' W 089°57'1 0.4
2015-Jul-24 06:33N 29°55' W 089°58'2 0.1
2015-Jul-23 01:30N 29°56' W 089°60'4 1.9
2015-Jul-22 23:32N 29°55' W 089°56'  
Track history (hours):
 
Tides and Currents Weather Stations Pressure Air Temp Water Temp Dewpoint Dewpoint Depression Visibility Wind Speed Wind Dir Waves Ship Positions

Omaha

Owner: Turn services, Inc, New Orleans, LA. More information available from US FCC via Universal Licensing System and Coast Guard Vessel Documentation Center.

Last reported at 2015-Aug-01 23:27 UTC. Time now 2015-Aug-02 10:19 UTC.
Position N 29°55' W 089°56'.

Length 13 m; draft 3.5 m.

Type: Pilot. MMSI: 367102030.

Date/timePositionNaut miles runAvg speedWind from/ knotsBaromVisibWave heightAir tempDewpointWater temp
2015-Aug-01 23:27N 29°55' W 089°56'0 0.1
2015-Aug-01 19:33N 29°55' W 089°56'0 0.0
2015-Aug-01 08:31N 29°55' W 089°56'0 0.1
2015-Aug-01 06:12N 29°55' W 089°56'3 3.6
2015-Aug-01 05:30N 29°56' W 089°59'3 2.9
2015-Aug-01 04:33N 29°55' W 089°56'3 2.8
2015-Aug-01 03:20N 29°56' W 089°59'3 0.9
2015-Aug-01 00:09N 29°55' W 089°56'3 0.9
2015-Jul-31 21:20N 29°56' W 089°59'0 0.0
2015-Jul-31 01:20N 29°56' W 089°59'2 0.5
2015-Jul-30 21:13N 29°55' W 089°57'1 0.5
2015-Jul-30 20:08N 29°55' W 089°56'1 0.3
2015-Jul-30 16:28N 29°55' W 089°57'2 0.1
2015-Jul-29 13:08N 29°56' W 089°60'0 0.4
2015-Jul-29 12:31N 29°57' W 089°60'1 0.2
2015-Jul-29 08:33N 29°56' W 089°59'0 0.0
2015-Jul-29 07:16N 29°56' W 089°59'0 0.5
2015-Jul-29 06:33N 29°56' W 089°60'1 0.2
2015-Jul-29 01:23N 29°56' W 089°59'3 0.1
2015-Jul-27 08:29N 29°55' W 089°56'0 0.0
2015-Jul-26 19:31N 29°55' W 089°56'0 0.3
2015-Jul-26 18:33N 29°55' W 089°56'0 0.1
2015-Jul-26 17:26N 29°55' W 089°56'1 0.3
2015-Jul-26 15:26N 29°55' W 089°57'0 0.4
2015-Jul-26 14:17N 29°55' W 089°57'1 0.5
2015-Jul-26 12:32N 29°55' W 089°56'0 0.3
2015-Jul-26 11:03N 29°55' W 089°56'1 1.0
2015-Jul-26 10:14N 29°55' W 089°57'1 0.2
2015-Jul-26 06:29N 29°55' W 089°56'1 0.5
2015-Jul-26 05:29N 29°55' W 089°56'0 0.0
2015-Jul-26 03:28N 29°55' W 089°56'0 0.5
2015-Jul-26 02:29N 29°55' W 089°56'0 0.4
2015-Jul-26 01:28N 29°55' W 089°56'4 4.5
2015-Jul-26 00:33N 29°57' W 090°00'3 0.1
2015-Jul-24 09:30N 29°55' W 089°57'1 0.4
2015-Jul-24 06:33N 29°55' W 089°58'2 0.1
2015-Jul-23 01:30N 29°56' W 089°60'4 1.9
2015-Jul-22 23:32N 29°55' W 089°56'  

Dump ship's entire track history